地図

経路データ

SID SEASON NUMBER BASIN SUBBASIN NAME ISO_TIME NATURE LAT LON WMO_WIND WMO_PRES WMO_AGENCY TRACK_TYPE DIST2LAND LANDFALL IFLAG USA_AGENCY USA_ATCF_ID USA_LAT USA_LON USA_RECORD USA_STATUS USA_WIND USA_PRES USA_SSHS USA_R34_NE USA_R34_SE USA_R34_SW USA_R34_NW USA_R50_NE USA_R50_SE USA_R50_SW USA_R50_NW USA_R64_NE USA_R64_SE USA_R64_SW USA_R64_NW USA_POCI USA_ROCI USA_RMW USA_EYE TOKYO_LAT TOKYO_LON TOKYO_GRADE TOKYO_WIND TOKYO_PRES TOKYO_R50_DIR TOKYO_R50_LONG TOKYO_R50_SHORT TOKYO_R30_DIR TOKYO_R30_LONG TOKYO_R30_SHORT TOKYO_LAND CMA_LAT CMA_LON CMA_CAT CMA_WIND CMA_PRES HKO_LAT HKO_LON HKO_CAT HKO_WIND HKO_PRES NEWDELHI_LAT NEWDELHI_LON NEWDELHI_GRADE NEWDELHI_WIND NEWDELHI_PRES NEWDELHI_CI NEWDELHI_DP NEWDELHI_POCI REUNION_LAT REUNION_LON REUNION_TYPE REUNION_WIND REUNION_PRES REUNION_TNUM REUNION_CI REUNION_RMW REUNION_R34_NE REUNION_R34_SE REUNION_R34_SW REUNION_R34_NW REUNION_R50_NE REUNION_R50_SE REUNION_R50_SW REUNION_R50_NW REUNION_R64_NE REUNION_R64_SE REUNION_R64_SW REUNION_R64_NW BOM_LAT BOM_LON BOM_TYPE BOM_WIND BOM_PRES BOM_TNUM BOM_CI BOM_RMW BOM_R34_NE BOM_R34_SE BOM_R34_SW BOM_R34_NW BOM_R50_NE BOM_R50_SE BOM_R50_SW BOM_R50_NW BOM_R64_NE BOM_R64_SE BOM_R64_SW BOM_R64_NW BOM_ROCI BOM_POCI BOM_EYE BOM_POS_METHOD BOM_PRES_METHOD NADI_LAT NADI_LON NADI_CAT NADI_WIND NADI_PRES WELLINGTON_LAT WELLINGTON_LON WELLINGTON_WIND WELLINGTON_PRES DS824_LAT DS824_LON DS824_STAGE DS824_WIND DS824_PRES TD9636_LAT TD9636_LON TD9636_STAGE TD9636_WIND TD9636_PRES TD9635_LAT TD9635_LON TD9635_WIND TD9635_PRES TD9635_ROCI NEUMANN_LAT NEUMANN_LON NEUMANN_CLASS NEUMANN_WIND NEUMANN_PRES MLC_LAT MLC_LON MLC_CLASS MLC_WIND MLC_PRES USA_GUST BOM_GUST BOM_GUST_PER REUNION_GUST REUNION_GUST_PER USA_SEAHGT USA_SEARAD_NE USA_SEARAD_SE USA_SEARAD_SW USA_SEARAD_NW STORM_SPEED STORM_DIR
1885150N13061 1885 22 NI AS NOT_NAMED 1885-05-30 00:00:00 TS 12.9000 60.7000 main 673 662 _________O____ -1 12.9000 60.7000 TC 64 2 270
1885150N13061 1885 22 NI AS NOT_NAMED 1885-05-30 03:00:00 TS 12.9000 60.6067 main 662 641 _________PO___ -1 12.9000 60.5600 TC 64 12.9000 60.7000 4 3 269
1885150N13061 1885 22 NI AS NOT_NAMED 1885-05-30 06:00:00 TS 12.8977 60.4369 main 641 630 _________OP___ -1 12.9000 60.4000 TC 64 12.8942 60.4922 4 4 269
1885150N13061 1885 22 NI AS NOT_NAMED 1885-05-30 09:00:00 TS 12.8960 60.2461 main 619 608 _________PP___ -1 12.9000 60.2075 TC 64 12.8906 60.2976 4 4 270
1885150N13061 1885 22 NI AS NOT_NAMED 1885-05-30 12:00:00 TS 12.8959 60.0646 main 608 586 _________OP___ -1 12.9000 60.0000 TC 64 12.8918 60.1291 4 3 270
1885150N13061 1885 22 NI AS NOT_NAMED 1885-05-30 15:00:00 TS 12.8962 59.8962 main 586 576 _________PO___ -1 12.8925 59.7925 TC 64 12.9000 60.0000 4 3 272
1885150N13061 1885 22 NI AS NOT_NAMED 1885-05-30 18:00:00 TS 12.9085 59.7551 main 576 565 _________OP___ -1 12.9000 59.6000 TC 64 12.9170 59.9102 4 2 282
1885150N13061 1885 22 NI AS NOT_NAMED 1885-05-30 21:00:00 TS 12.9417 59.6661 main 565 544 _________PP___ -1 12.9422 59.5249 TC 64 12.9411 59.8073 4 3 285
1885150N13061 1885 22 NI AS NOT_NAMED 1885-05-31 00:00:00 TS 12.9849 59.4629 main 544 490 _________OP___ -1 13.0000 59.3000 TC 64 12.9698 59.6258 4 7 278
1885150N13061 1885 22 NI AS NOT_NAMED 1885-05-31 03:00:00 TS 13.0289 58.9913 main 490 426 _________PO___ -1 13.0578 58.6826 TC 64 13.0000 59.3000 4 11 274
1885150N13061 1885 22 NI AS NOT_NAMED 1885-05-31 06:00:00 TS 13.0629 58.3254 main 415 351 _________OP___ -1 13.1000 57.9000 TC 64 13.0258 58.7509 4 13 272
1885150N13061 1885 22 NI AS NOT_NAMED 1885-05-31 09:00:00 TS 13.0792 57.6286 main 340 266 _________PP___ -1 13.1073 57.1999 TC 64 13.0511 58.0573 4 14 271
1885150N13061 1885 22 NI AS NOT_NAMED 1885-05-31 12:00:00 TS 13.0878 56.8926 main 266 192 _________OP___ -1 13.1000 56.5000 TC 64 13.0757 57.2851 4 14 271
1885150N13061 1885 22 NI AS NOT_NAMED 1885-05-31 15:00:00 TS 13.0962 56.1500 main 182 122 _________PO___ -1 13.0923 55.7999 TC 64 13.1000 56.5000 4 14 271
1885150N13061 1885 22 NI AS NOT_NAMED 1885-05-31 18:00:00 TS 13.1146 55.4318 main 112 64 _________OP___ -1 13.1000 55.1000 TC 64 13.1291 55.7636 4 14 272
1885150N13061 1885 22 NI AS NOT_NAMED 1885-05-31 21:00:00 TS 13.1539 54.7014 main 70 67 _________PP___ -1 13.1500 54.3701 TC 64 13.1577 55.0327 4 14 273
1885150N13061 1885 22 NI AS NOT_NAMED 1885-06-01 00:00:00 TS 13.1912 54.0177 main 67 67 _________OP___ -1 13.2000 53.7000 TC 64 13.1824 54.3354 4 12 272
1885150N13061 1885 22 NI AS NOT_NAMED 1885-06-01 03:00:00 TS 13.2036 53.4312 main 67 67 _________PO___ -1 13.2072 53.1625 TC 64 13.2000 53.7000 4 11 271
1885150N13061 1885 22 NI AS NOT_NAMED 1885-06-01 06:00:00 TS 13.2072 52.9261 main 86 86 _________OP___ -1 13.2000 52.7000 TC 64 13.2144 53.1523 4 10 271
1885150N13061 1885 22 NI AS NOT_NAMED 1885-06-01 09:00:00 TS 13.2144 52.4551 main 116 116 _________PP___ -1 13.2074 52.2425 TC 64 13.2214 52.6677 4 9 270
1885150N13061 1885 22 NI AS NOT_NAMED 1885-06-01 12:00:00 TS 13.2089 52.0121 main 161 159 _________OP___ -1 13.2000 51.8000 TC 64 13.2178 52.2242 4 9 268
1885150N13061 1885 22 NI AS NOT_NAMED 1885-06-01 15:00:00 TS 13.1787 51.5712 main 159 136 _________PO___ -1 13.1575 51.3425 TC 64 13.2000 51.8000 4 8 265
1885150N13061 1885 22 NI AS NOT_NAMED 1885-06-01 18:00:00 TS 13.1377 51.1726 main 136 134 _________OP___ -1 13.1000 50.9000 TC 64 13.1659 51.3770 4 8 264
1885150N13061 1885 22 NI AS NOT_NAMED 1885-06-01 21:00:00 TS 13.0901 50.7673 main 134 125 _________PP___ -1 13.0476 50.4900 TC 64 13.1184 50.9522 4 8 263
1885150N13061 1885 22 NI AS NOT_NAMED 1885-06-02 00:00:00 TS 13.0411 50.3842 main 125 125 _________OP___ -1 13.0000 50.1000 TC 64 13.0617 50.5263 4 7 262
1885150N13061 1885 22 NI AS NOT_NAMED 1885-06-02 03:00:00 NR 13.0000 50.1000 main 134 __________O___ -1 TC 13.0000 50.1000 4 6 262

IBTrACS Databaseについて

本データベースは、米国NOAAが公開する1842年以降の世界の熱帯低気圧のベストトラックデータアーカイブInternational Best Track Archive for Climate Stewardship (IBTrACS)を、ウェブで閲覧しやすい形式に変換したものです。

最終更新日:2021-12-06